Time;durP1;ratioP1;P1;durP2;ratioP2;P2;SDS_P1;SDS_P2;PMS_P1;PMS_P2;Temp;Humidity;BMP_temperature;BMP_pressure;BME280_temperature;BME280_humidity;BME280_pressure;Samples;Min_cycle;Max_cycle;Signal;HPM_P1;HPM_P2
2021/05/28 00:00:44;;;;;;;14.02;8.13;;;11.10;99.90;;;;;;5047297;28;20047;-67
2021/05/28 00:03:11;;;;;;;12.55;8.25;;;11.20;99.90;;;;;;5046669;28;20048;-66
2021/05/28 00:05:38;;;;;;;15.63;8.07;;;11.30;99.90;;;;;;5046713;28;20048;-67
2021/05/28 00:08:05;;;;;;;18.73;9.10;;;11.30;99.90;;;;;;5045967;28;20121;-66
2021/05/28 00:10:32;;;;;;;13.40;8.32;;;11.30;99.90;;;;;;5044744;28;20052;-67
2021/05/28 00:13:00;;;;;;;14.02;9.13;;;11.30;99.90;;;;;;5046920;28;20041;-67
2021/05/28 00:15:26;;;;;;;13.93;7.93;;;11.20;99.90;;;;;;5043635;28;20059;-66
2021/05/28 00:17:53;;;;;;;18.92;9.05;;;11.20;99.90;;;;;;5044583;28;20052;-67
2021/05/28 00:20:20;;;;;;;13.65;8.93;;;11.10;99.90;;;;;;5045900;28;20053;-67
2021/05/28 00:22:46;;;;;;;16.02;8.93;;;11.10;99.90;;;;;;5045401;28;20052;-67
2021/05/28 00:25:13;;;;;;;20.13;8.88;;;11.00;99.90;;;;;;5046996;28;20786;-66
2021/05/28 00:27:42;;;;;;;17.48;9.57;;;11.00;99.90;;;;;;5044411;28;20051;-67
2021/05/28 00:30:10;;;;;;;16.27;9.57;;;11.00;99.90;;;;;;5049123;28;20052;-67
2021/05/28 00:32:36;;;;;;;16.58;9.40;;;11.00;99.90;;;;;;5045860;28;20402;-67
2021/05/28 00:35:03;;;;;;;13.68;8.77;;;11.00;99.90;;;;;;5050672;28;20054;-67
2021/05/28 00:37:30;;;;;;;14.23;8.50;;;11.20;99.90;;;;;;5043996;28;20048;-67
2021/05/28 00:39:56;;;;;;;16.35;9.43;;;11.10;99.90;;;;;;5047393;28;20758;-67
2021/05/28 00:42:23;;;;;;;14.98;8.93;;;11.20;99.90;;;;;;5042958;28;20057;-67
2021/05/28 00:44:50;;;;;;;16.92;8.70;;;11.20;99.90;;;;;;5043689;28;20052;-67
2021/05/28 00:47:17;;;;;;;15.50;9.32;;;11.20;99.90;;;;;;5044420;28;20082;-67
2021/05/28 00:49:44;;;;;;;14.00;8.80;;;11.20;99.90;;;;;;5048314;28;20101;-67
2021/05/28 00:52:12;;;;;;;15.68;9.23;;;11.00;99.90;;;;;;5046181;28;20578;-67
2021/05/28 00:54:39;;;;;;;15.25;8.13;;;10.90;99.90;;;;;;5042949;28;20059;-67
2021/05/28 00:57:07;;;;;;;15.95;8.52;;;10.90;99.90;;;;;;5043288;28;20048;-67
2021/05/28 00:59:35;;;;;;;16.52;8.95;;;10.90;99.90;;;;;;5042993;28;20052;-67
2021/05/28 01:02:02;;;;;;;15.70;8.45;;;10.90;99.90;;;;;;5044218;28;20056;-67
2021/05/28 01:04:29;;;;;;;17.02;7.97;;;10.80;99.90;;;;;;5044171;28;20048;-67
2021/05/28 01:06:56;;;;;;;15.75;8.45;;;10.80;99.90;;;;;;5044313;28;20051;-67
2021/05/28 01:09:22;;;;;;;17.02;8.38;;;10.70;99.90;;;;;;5043858;28;21116;-67
2021/05/28 01:11:49;;;;;;;16.02;8.68;;;10.70;99.90;;;;;;5043241;28;20094;-67
2021/05/28 01:14:17;;;;;;;14.65;8.68;;;10.70;99.90;;;;;;5045175;28;20097;-67
2021/05/28 01:16:43;;;;;;;15.57;8.40;;;10.70;99.90;;;;;;5046727;28;20051;-67
2021/05/28 01:19:11;;;;;;;11.70;8.23;;;10.70;99.90;;;;;;5043093;28;20062;-67
2021/05/28 01:21:38;;;;;;;16.70;8.65;;;10.70;99.90;;;;;;5044013;28;20050;-67
2021/05/28 01:24:06;;;;;;;13.30;8.38;;;10.70;99.90;;;;;;5046322;28;20133;-67
2021/05/28 01:26:33;;;;;;;17.05;8.52;;;10.80;99.90;;;;;;5045427;28;20056;-67
2021/05/28 01:29:00;;;;;;;15.15;8.77;;;10.80;99.90;;;;;;5045131;28;20122;-67
2021/05/28 01:31:27;;;;;;;16.00;8.20;;;10.80;99.90;;;;;;5041979;28;20056;-67
2021/05/28 01:33:53;;;;;;;14.27;8.98;;;10.80;99.90;;;;;;5044756;28;20497;-67
2021/05/28 01:36:20;;;;;;;16.08;8.30;;;10.70;99.90;;;;;;5046255;28;20048;-67
2021/05/28 01:38:47;;;;;;;14.10;8.30;;;10.70;99.90;;;;;;5045129;28;20105;-67
2021/05/28 01:41:14;;;;;;;16.23;8.77;;;10.80;99.90;;;;;;5046249;28;20059;-67
2021/05/28 01:43:41;;;;;;;12.55;7.93;;;10.80;99.90;;;;;;5044702;28;20075;-67
2021/05/28 01:46:08;;;;;;;16.27;8.90;;;10.80;99.90;;;;;;5046122;28;20520;-67
2021/05/28 01:48:34;;;;;;;16.20;9.07;;;10.80;99.90;;;;;;5046041;28;20063;-67
2021/05/28 01:51:01;;;;;;;13.80;8.13;;;10.80;99.90;;;;;;5044216;28;20492;-67
2021/05/28 01:53:28;;;;;;;15.90;9.38;;;10.70;99.90;;;;;;5043817;28;20053;-67
2021/05/28 01:55:56;;;;;;;13.52;8.55;;;10.60;99.90;;;;;;5044196;28;20053;-67
2021/05/28 01:58:24;;;;;;;15.43;9.27;;;10.60;99.90;;;;;;5043571;28;20068;-67
2021/05/28 02:00:55;;;;;;;17.10;9.02;;;10.60;99.90;;;;;;5043208;28;20059;-67
2021/05/28 02:03:22;;;;;;;13.23;8.77;;;10.60;99.90;;;;;;5043595;28;20056;-67
2021/05/28 02:05:48;;;;;;;25.05;10.23;;;10.60;99.90;;;;;;5042907;28;20060;-67
2021/05/28 02:08:15;;;;;;;16.52;9.60;;;10.60;99.90;;;;;;5044966;28;20056;-67
2021/05/28 02:10:43;;;;;;;18.42;10.23;;;10.50;99.90;;;;;;5044553;28;20056;-67
2021/05/28 02:13:09;;;;;;;16.42;10.15;;;10.50;99.90;;;;;;5044687;28;20162;-67
2021/05/28 02:15:37;;;;;;;17.35;8.93;;;10.60;99.90;;;;;;5044999;28;20050;-67
2021/05/28 02:18:05;;;;;;;22.08;10.07;;;10.50;99.90;;;;;;5044266;28;20040;-67
2021/05/28 02:20:32;;;;;;;18.98;10.63;;;10.30;99.90;;;;;;5044848;28;20067;-67
2021/05/28 02:22:59;;;;;;;17.55;9.85;;;10.30;99.90;;;;;;5044729;28;20545;-66
2021/05/28 02:25:26;;;;;;;18.65;10.35;;;10.30;99.90;;;;;;5047007;28;20048;-66
2021/05/28 02:27:52;;;;;;;16.02;9.52;;;10.40;99.90;;;;;;5041920;28;20053;-66
2021/05/28 02:30:19;;;;;;;17.80;10.05;;;10.60;99.90;;;;;;5043911;28;20066;-66
2021/05/28 02:32:47;;;;;;;17.42;9.32;;;10.50;99.90;;;;;;5044078;28;20106;-67
2021/05/28 02:35:14;;;;;;;20.00;10.20;;;10.50;99.90;;;;;;5043791;28;20849;-66
2021/05/28 02:37:41;;;;;;;18.20;10.10;;;10.40;99.90;;;;;;5043783;28;20052;-67
2021/05/28 02:40:08;;;;;;;17.75;10.35;;;10.40;99.90;;;;;;5043364;28;20103;-67
2021/05/28 02:42:36;;;;;;;15.32;9.70;;;10.40;99.90;;;;;;5043939;28;20049;-66
2021/05/28 02:45:04;;;;;;;19.05;9.73;;;10.40;99.90;;;;;;5042686;28;20044;-66
2021/05/28 02:47:30;;;;;;;18.05;10.07;;;10.40;99.90;;;;;;5039387;28;20040;-67
2021/05/28 02:49:59;;;;;;;17.67;10.30;;;10.40;99.90;;;;;;5042135;28;20060;-66
2021/05/28 02:52:25;;;;;;;18.58;10.32;;;10.50;99.90;;;;;;5046829;28;20121;-67
2021/05/28 02:54:52;;;;;;;18.00;9.85;;;10.50;99.90;;;;;;5043360;28;20047;-66
2021/05/28 02:57:19;;;;;;;14.85;9.82;;;10.50;99.90;;;;;;5041472;28;20082;-66
2021/05/28 02:59:45;;;;;;;17.38;10.98;;;10.50;99.90;;;;;;5042850;28;20051;-67
2021/05/28 03:02:12;;;;;;;19.45;9.77;;;10.40;99.90;;;;;;5041973;28;20052;-67
2021/05/28 03:04:38;;;;;;;19.90;10.02;;;10.40;99.90;;;;;;5042649;28;20405;-66
2021/05/28 03:07:06;;;;;;;16.17;9.85;;;10.50;99.90;;;;;;5043029;28;20489;-66
2021/05/28 03:09:32;;;;;;;19.70;10.25;;;10.50;99.90;;;;;;5043654;28;20052;-66
2021/05/28 03:11:59;;;;;;;19.10;10.57;;;10.50;99.90;;;;;;5044611;28;20048;-66
2021/05/28 03:14:25;;;;;;;17.98;10.77;;;10.50;99.90;;;;;;5042495;28;20048;-66
2021/05/28 03:16:52;;;;;;;19.83;11.38;;;10.50;99.90;;;;;;5041839;28;20421;-66
2021/05/28 03:19:22;;;;;;;18.77;11.02;;;10.50;99.90;;;;;;5041269;28;20063;-66
2021/05/28 03:24:44;;;;;;;28.77;12.63;;;10.50;99.90;;;;;;5018199;28;20256;-67
2021/05/28 03:27:10;;;;;;;22.52;11.82;;;10.60;99.90;;;;;;5050687;28;20051;-66
2021/05/28 03:29:37;;;;;;;20.38;11.73;;;10.50;99.90;;;;;;5051494;28;20079;-66
2021/05/28 03:32:05;;;;;;;20.52;12.40;;;10.60;99.90;;;;;;5050692;28;20059;-67
2021/05/28 03:34:31;;;;;;;21.73;12.85;;;10.60;99.90;;;;;;5050986;28;20051;-67
2021/05/28 03:36:59;;;;;;;22.45;12.07;;;10.60;99.90;;;;;;5051465;28;20052;-67
2021/05/28 03:39:26;;;;;;;19.00;11.07;;;10.70;99.90;;;;;;5048150;28;20056;-66
2021/05/28 03:41:53;;;;;;;23.40;11.55;;;10.80;99.90;;;;;;5050739;28;20055;-67
2021/05/28 03:44:20;;;;;;;18.20;11.48;;;10.70;99.90;;;;;;5051457;28;20108;-66
2021/05/28 03:46:47;;;;;;;16.83;10.88;;;10.80;99.90;;;;;;5047583;28;20155;-66
2021/05/28 03:49:13;;;;;;;16.55;11.30;;;10.80;99.90;;;;;;5049263;28;20048;-67
2021/05/28 03:51:40;;;;;;;18.35;11.43;;;10.70;99.90;;;;;;5049812;28;20057;-66
2021/05/28 03:54:07;;;;;;;21.20;11.45;;;10.60;99.90;;;;;;5052106;28;20051;-66
2021/05/28 03:56:36;;;;;;;21.55;11.00;;;10.70;99.90;;;;;;5049975;28;20282;-66
2021/05/28 03:59:04;;;;;;;21.25;11.55;;;10.70;99.90;;;;;;5049815;28;20048;-67
2021/05/28 04:01:31;;;;;;;22.52;12.70;;;10.70;99.90;;;;;;5048863;28;20213;-67
2021/05/28 04:03:57;;;;;;;20.98;12.43;;;10.70;99.90;;;;;;5049799;28;20048;-67
2021/05/28 04:06:24;;;;;;;23.27;12.38;;;10.70;99.90;;;;;;5051677;28;20055;-67
2021/05/28 04:08:50;;;;;;;20.55;11.32;;;10.70;99.90;;;;;;5050255;28;20052;-67
2021/05/28 04:11:18;;;;;;;21.73;12.40;;;10.60;99.90;;;;;;5049128;28;20063;-66
2021/05/28 04:13:44;;;;;;;20.67;11.77;;;10.70;99.90;;;;;;5048812;28;20051;-67
2021/05/28 04:16:12;;;;;;;26.58;12.38;;;10.70;99.90;;;;;;5050805;28;20140;-66
2021/05/28 04:18:39;;;;;;;17.23;11.57;;;10.70;99.90;;;;;;5049149;28;20672;-66
2021/05/28 04:21:05;;;;;;;21.42;11.98;;;10.80;99.90;;;;;;5051057;28;20048;-66
2021/05/28 04:23:32;;;;;;;21.05;12.57;;;10.80;99.90;;;;;;5051516;28;20100;-66
2021/05/28 04:26:00;;;;;;;23.98;12.32;;;10.80;99.90;;;;;;5049098;28;20051;-66
2021/05/28 04:28:27;;;;;;;24.15;12.93;;;10.80;99.90;;;;;;5045449;28;20075;-66
2021/05/28 04:30:54;;;;;;;21.05;12.05;;;10.80;99.90;;;;;;5048612;28;20078;-67
2021/05/28 04:33:22;;;;;;;24.48;13.57;;;10.90;99.90;;;;;;5053623;28;20048;-66
2021/05/28 04:35:48;;;;;;;23.63;13.20;;;10.90;99.90;;;;;;5053282;28;20056;-66
2021/05/28 04:38:15;;;;;;;22.67;12.73;;;10.90;99.90;;;;;;5042487;28;20045;-67
2021/05/28 04:40:42;;;;;;;22.65;12.98;;;10.90;99.90;;;;;;5046692;28;20113;-66
2021/05/28 04:43:09;;;;;;;22.80;13.30;;;10.90;99.90;;;;;;5046724;28;20106;-66
2021/05/28 04:45:36;;;;;;;26.23;12.85;;;10.90;99.90;;;;;;5044595;28;20064;-66
2021/05/28 04:48:04;;;;;;;22.98;13.38;;;11.00;99.90;;;;;;5045102;28;20048;-67
2021/05/28 04:50:31;;;;;;;30.85;14.30;;;11.00;99.90;;;;;;5047521;28;20063;-66
2021/05/28 04:52:59;;;;;;;28.25;15.80;;;11.10;99.90;;;;;;5044835;28;20039;-66
2021/05/28 04:55:26;;;;;;;22.30;13.68;;;11.00;99.90;;;;;;5044430;28;20093;-66
2021/05/28 04:57:52;;;;;;;23.00;12.82;;;11.10;99.90;;;;;;5043617;28;20500;-66
2021/05/28 05:00:21;;;;;;;22.42;12.93;;;11.20;99.90;;;;;;5043130;28;20072;-67
2021/05/28 05:02:48;;;;;;;20.55;12.07;;;11.10;99.90;;;;;;5041291;28;20136;-67
2021/05/28 05:05:15;;;;;;;21.35;12.35;;;11.10;99.90;;;;;;5045520;28;20067;-67
2021/05/28 05:07:43;;;;;;;22.73;12.05;;;11.10;99.90;;;;;;5045621;28;20052;-66
2021/05/28 05:10:11;;;;;;;21.88;13.10;;;11.10;99.90;;;;;;5047435;28;20070;-67
2021/05/28 05:12:38;;;;;;;22.02;12.25;;;11.20;99.90;;;;;;5047714;28;20452;-67
2021/05/28 05:15:07;;;;;;;19.75;12.15;;;11.10;99.90;;;;;;5047183;28;20052;-67
2021/05/28 05:17:33;;;;;;;20.60;12.05;;;11.10;99.90;;;;;;5042402;28;20052;-67
2021/05/28 05:20:00;;;;;;;22.95;13.00;;;11.10;99.90;;;;;;5046147;28;20074;-67
2021/05/28 05:22:27;;;;;;;19.92;12.23;;;11.10;99.90;;;;;;5045757;28;20060;-66
2021/05/28 05:24:54;;;;;;;20.48;12.50;;;11.20;99.90;;;;;;5046818;28;20105;-67
2021/05/28 05:27:21;;;;;;;19.67;11.32;;;11.20;99.90;;;;;;5045181;28;20060;-67
2021/05/28 05:29:47;;;;;;;18.77;10.95;;;11.20;99.90;;;;;;5044480;28;20063;-67
2021/05/28 05:32:15;;;;;;;21.70;12.55;;;11.30;99.90;;;;;;5047210;28;20760;-67
2021/05/28 05:34:41;;;;;;;22.35;12.05;;;11.40;99.90;;;;;;5045340;28;20056;-67
2021/05/28 05:37:08;;;;;;;20.45;12.40;;;11.30;99.90;;;;;;5044308;28;20136;-67
2021/05/28 05:39:35;;;;;;;25.55;13.80;;;11.30;99.90;;;;;;5044379;28;20064;-67
2021/05/28 05:42:03;;;;;;;25.98;14.13;;;11.30;99.90;;;;;;5046334;28;20048;-67
2021/05/28 05:44:30;;;;;;;22.77;13.40;;;11.30;99.90;;;;;;5047927;28;20056;-67
2021/05/28 05:46:56;;;;;;;25.83;14.15;;;11.30;99.90;;;;;;5042143;28;20064;-67
2021/05/28 05:49:23;;;;;;;24.77;14.32;;;11.30;99.90;;;;;;5042623;28;20494;-67
2021/05/28 05:51:50;;;;;;;24.80;13.10;;;11.30;99.90;;;;;;5045826;28;20610;-67
2021/05/28 05:54:17;;;;;;;23.77;14.07;;;11.30;99.90;;;;;;5050049;28;20050;-67
2021/05/28 05:56:45;;;;;;;27.23;13.80;;;11.40;99.90;;;;;;5043915;28;20943;-67
2021/05/28 05:59:12;;;;;;;25.52;13.75;;;11.40;99.90;;;;;;5042815;28;20064;-68
2021/05/28 06:01:39;;;;;;;25.45;12.65;;;11.40;99.90;;;;;;5047935;28;20416;-67
2021/05/28 06:04:06;;;;;;;24.08;13.38;;;11.30;99.90;;;;;;5046360;28;20459;-67
2021/05/28 06:06:33;;;;;;;26.15;13.63;;;11.40;99.90;;;;;;5043490;28;20055;-67
2021/05/28 06:09:03;;;;;;;25.17;14.80;;;11.50;99.90;;;;;;5049677;28;20052;-66
2021/05/28 06:11:29;;;;;;;26.45;14.40;;;11.60;99.90;;;;;;5045965;28;20052;-68
2021/05/28 06:13:56;;;;;;;25.83;14.18;;;11.60;99.90;;;;;;5046963;28;20048;-68
2021/05/28 06:16:23;;;;;;;21.42;13.20;;;11.70;99.90;;;;;;5045304;28;20060;-68
2021/05/28 06:18:50;;;;;;;20.45;12.98;;;11.90;99.90;;;;;;5042354;28;20500;-68
2021/05/28 06:21:17;;;;;;;35.17;16.55;;;11.90;99.90;;;;;;5045480;28;20093;-68
2021/05/28 06:23:43;;;;;;;23.92;13.57;;;12.00;99.90;;;;;;5044575;28;20052;-68
2021/05/28 06:26:10;;;;;;;23.38;13.32;;;12.00;99.90;;;;;;5036514;28;20159;-68
2021/05/28 06:28:37;;;;;;;22.63;13.55;;;12.20;99.90;;;;;;5045303;28;20094;-67
2021/05/28 06:31:03;;;;;;;16.90;11.43;;;12.30;99.90;;;;;;5041390;28;20052;-67
2021/05/28 06:33:31;;;;;;;22.70;12.93;;;12.50;99.90;;;;;;5044037;28;20105;-67
2021/05/28 06:35:57;;;;;;;20.98;11.73;;;12.60;99.90;;;;;;5044242;28;20071;-67
2021/05/28 06:38:24;;;;;;;20.23;11.45;;;12.60;99.90;;;;;;5041209;28;20505;-67
2021/05/28 06:40:52;;;;;;;17.85;10.88;;;12.70;99.90;;;;;;5043285;28;21647;-67
2021/05/28 06:43:19;;;;;;;17.15;10.95;;;12.80;99.90;;;;;;5043116;28;20072;-67
2021/05/28 06:45:45;;;;;;;18.40;10.23;;;12.90;99.90;;;;;;5036209;28;20163;-67
2021/05/28 06:48:12;;;;;;;18.73;10.98;;;13.00;99.90;;;;;;5037344;28;20092;-67
2021/05/28 06:50:41;;;;;;;16.50;9.45;;;13.10;99.90;;;;;;5044438;28;20063;-67
2021/05/28 06:53:08;;;;;;;14.25;8.52;;;13.10;99.90;;;;;;5051218;28;20102;-67
2021/05/28 06:55:34;;;;;;;20.35;10.10;;;13.30;99.90;;;;;;5058093;28;20059;-67
2021/05/28 06:58:01;;;;;;;14.60;9.27;;;13.40;99.90;;;;;;5054837;28;20048;-67
2021/05/28 07:00:28;;;;;;;17.13;9.15;;;13.50;99.90;;;;;;5053503;28;20860;-67
2021/05/28 07:02:55;;;;;;;15.15;8.35;;;13.50;99.90;;;;;;5057912;28;20440;-67
2021/05/28 07:05:24;;;;;;;15.10;7.03;;;13.70;99.90;;;;;;5056415;28;20060;-67
2021/05/28 07:07:52;;;;;;;13.32;6.63;;;13.80;99.90;;;;;;5054208;28;20060;-67
2021/05/28 07:10:18;;;;;;;15.68;6.80;;;13.80;99.90;;;;;;5053672;28;20083;-67
2021/05/28 07:12:45;;;;;;;16.75;7.75;;;13.70;99.90;;;;;;5057360;28;20052;-67
2021/05/28 07:15:13;;;;;;;15.52;6.95;;;13.80;99.90;;;;;;5054250;28;20094;-67
2021/05/28 07:17:39;;;;;;;12.52;7.43;;;13.80;99.90;;;;;;5053399;28;20055;-67
2021/05/28 07:20:07;;;;;;;12.30;6.75;;;13.80;99.90;;;;;;5055595;28;20503;-68
2021/05/28 07:22:34;;;;;;;12.88;6.03;;;14.00;99.90;;;;;;5056476;28;20111;-68
2021/05/28 07:25:01;;;;;;;10.20;5.45;;;14.00;99.90;;;;;;5057673;28;20493;-68
2021/05/28 07:27:28;;;;;;;16.67;5.50;;;14.20;99.90;;;;;;5054669;28;20056;-68
2021/05/28 07:29:55;;;;;;;15.52;6.25;;;14.10;99.90;;;;;;5051952;28;20052;-68
2021/05/28 07:32:22;;;;;;;14.05;6.18;;;14.30;99.90;;;;;;5054099;28;20477;-68
2021/05/28 07:34:49;;;;;;;10.50;5.90;;;14.30;99.90;;;;;;5055279;28;20058;-68
2021/05/28 07:37:15;;;;;;;12.45;5.10;;;14.30;99.90;;;;;;5053746;28;20260;-68
2021/05/28 07:39:42;;;;;;;8.93;4.65;;;14.50;99.90;;;;;;5052248;28;20056;-68
2021/05/28 07:42:10;;;;;;;10.43;5.18;;;14.50;99.90;;;;;;5055566;28;20048;-68
2021/05/28 07:44:37;;;;;;;10.20;5.43;;;14.60;99.90;;;;;;5054769;28;20051;-68
2021/05/28 07:47:03;;;;;;;10.15;5.13;;;14.40;99.90;;;;;;5052793;28;20409;-69
2021/05/28 07:49:30;;;;;;;9.95;4.38;;;14.40;99.90;;;;;;5057077;28;20056;-68
2021/05/28 07:51:57;;;;;;;13.07;5.10;;;14.70;99.90;;;;;;5054556;28;20060;-68
2021/05/28 07:54:24;;;;;;;13.82;5.55;;;14.80;99.90;;;;;;5057463;28;20071;-68
2021/05/28 07:56:50;;;;;;;9.57;4.22;;;15.00;99.90;;;;;;5055401;28;20394;-67
2021/05/28 07:59:18;;;;;;;9.15;4.28;;;15.10;99.90;;;;;;5053224;28;20407;-67
2021/05/28 08:01:45;;;;;;;10.65;4.47;;;15.30;99.90;;;;;;5055821;28;20612;-67
2021/05/28 08:04:12;;;;;;;8.23;4.38;;;15.30;99.90;;;;;;5059825;28;20047;-67
2021/05/28 08:06:38;;;;;;;10.15;4.55;;;15.10;99.90;;;;;;5058149;28;20052;-67
2021/05/28 08:09:06;;;;;;;10.68;4.57;;;15.30;99.90;;;;;;5057693;28;20115;-68
2021/05/28 08:11:33;;;;;;;7.70;3.85;;;15.30;99.90;;;;;;5056160;28;20226;-67
2021/05/28 08:13:59;;;;;;;6.82;3.53;;;15.40;99.90;;;;;;5058986;28;20076;-68
2021/05/28 08:16:27;;;;;;;9.15;4.10;;;15.40;99.90;;;;;;5060814;28;20048;-67
2021/05/28 08:18:53;;;;;;;9.13;3.75;;;15.30;99.90;;;;;;5058342;28;20114;-68
2021/05/28 08:21:20;;;;;;;8.85;3.92;;;15.30;99.90;;;;;;5063063;28;20073;-68
2021/05/28 08:23:47;;;;;;;10.15;4.50;;;15.40;99.90;;;;;;5058198;28;20056;-67
2021/05/28 08:26:13;;;;;;;6.97;3.67;;;15.10;99.90;;;;;;5061565;28;20470;-68
2021/05/28 08:28:40;;;;;;;7.28;3.50;;;15.20;99.90;;;;;;5060157;28;20072;-67
2021/05/28 08:31:08;;;;;;;9.60;3.78;;;15.30;99.90;;;;;;5058705;28;20055;-68
2021/05/28 08:33:38;;;;;;;8.52;3.47;;;15.20;99.90;;;;;;5044179;28;20075;-68
2021/05/28 08:36:06;;;;;;;8.52;4.10;;;15.10;99.90;;;;;;5056822;28;20052;-68
2021/05/28 08:38:33;;;;;;;7.90;3.70;;;14.80;99.90;;;;;;5057720;28;20055;-68
2021/05/28 08:40:59;;;;;;;7.55;3.42;;;14.90;99.90;;;;;;5057433;28;20048;-68
2021/05/28 08:43:26;;;;;;;10.32;3.80;;;15.00;99.90;;;;;;5055804;28;20463;-68
2021/05/28 08:45:53;;;;;;;12.15;4.22;;;14.90;99.90;;;;;;5055189;28;20805;-68
2021/05/28 08:48:20;;;;;;;9.73;3.78;;;15.00;99.90;;;;;;5055390;28;20915;-68
2021/05/28 08:50:49;;;;;;;16.48;3.72;;;15.10;99.90;;;;;;5055740;28;20048;-68
2021/05/28 08:53:17;;;;;;;9.18;3.95;;;15.20;99.90;;;;;;5058955;28;20066;-68
2021/05/28 08:55:45;;;;;;;15.68;3.83;;;15.20;99.90;;;;;;5056461;28;20125;-68
2021/05/28 08:58:14;;;;;;;8.43;4.20;;;15.10;99.90;;;;;;5056806;28;20049;-68
2021/05/28 09:00:44;;;;;;;11.23;4.55;;;15.30;99.90;;;;;;5052580;28;20063;-68
2021/05/28 09:03:22;;;;;;;10.98;5.53;;;15.10;99.90;;;;;;5056879;28;20114;-68
2021/05/28 09:05:50;;;;;;;8.25;4.82;;;15.20;99.90;;;;;;5056907;28;20052;-68
2021/05/28 09:08:25;;;;;;;8.10;4.55;;;15.20;99.90;;;;;;5056036;28;20059;-68
2021/05/28 09:10:53;;;;;;;9.10;3.88;;;15.10;99.90;;;;;;5055502;28;20557;-68
2021/05/28 09:13:23;;;;;;;7.45;3.75;;;15.30;99.90;;;;;;5056204;28;20196;-68
2021/05/28 09:16:03;;;;;;;8.93;3.75;;;15.40;99.90;;;;;;5059530;28;20068;-68
2021/05/28 09:18:44;;;;;;;6.35;3.20;;;15.40;99.90;;;;;;5056217;28;20052;-68
2021/05/28 09:21:13;;;;;;;10.35;4.20;;;15.10;99.90;;;;;;5055054;28;20059;-68
2021/05/28 09:23:40;;;;;;;9.05;3.53;;;15.20;99.90;;;;;;5055266;28;20078;-68
2021/05/28 09:26:08;;;;;;;8.15;3.50;;;15.20;99.90;;;;;;5055292;28;20044;-67
2021/05/28 09:28:42;;;;;;;7.47;3.88;;;15.30;99.90;;;;;;5054406;28;20053;-68
2021/05/28 09:31:13;;;;;;;8.55;3.55;;;15.20;99.90;;;;;;5055883;28;20045;-68
2021/05/28 09:33:43;;;;;;;7.60;3.17;;;15.30;99.90;;;;;;5059420;28;20411;-68
2021/05/28 09:36:19;;;;;;;7.93;3.30;;;15.40;99.90;;;;;;5057702;28;20056;-68
2021/05/28 09:38:58;;;;;;;7.22;3.08;;;15.30;99.90;;;;;;5056402;28;20139;-68
2021/05/28 09:41:38;;;;;;;8.10;3.38;;;15.30;99.90;;;;;;5056110;28;20044;-68
2021/05/28 09:44:10;;;;;;;8.23;3.47;;;15.00;99.90;;;;;;5050945;28;20055;-68
2021/05/28 09:46:37;;;;;;;7.35;3.17;;;15.10;99.90;;;;;;5050726;28;20967;-68
2021/05/28 09:49:09;;;;;;;8.02;3.05;;;15.20;99.90;;;;;;5047068;28;20503;-67
2021/05/28 09:51:38;;;;;;;11.60;3.05;;;15.40;99.90;;;;;;5051226;28;20134;-68
2021/05/28 09:54:16;;;;;;;6.68;2.30;;;15.60;99.90;;;;;;5057088;28;20048;-68
2021/05/28 09:56:44;;;;;;;8.35;2.72;;;15.70;99.90;;;;;;5047406;28;20053;-68
2021/05/28 09:59:10;;;;;;;5.03;2.00;;;16.00;99.90;;;;;;5054322;28;20084;-68
2021/05/28 10:01:53;;;;;;;4.93;2.17;;;16.00;99.90;;;;;;5057364;28;20053;-68
2021/05/28 10:04:20;;;;;;;4.82;1.90;;;16.30;99.90;;;;;;5055260;28;20059;-68
2021/05/28 10:06:49;;;;;;;7.50;2.55;;;16.30;99.90;;;;;;5056525;28;20052;-68
2021/05/28 10:09:16;;;;;;;7.40;2.10;;;16.30;99.90;;;;;;5056401;28;20528;-68
2021/05/28 10:11:43;;;;;;;8.90;2.05;;;16.50;99.90;;;;;;5055018;28;20463;-68
2021/05/28 10:14:11;;;;;;;5.82;2.53;;;16.40;99.90;;;;;;5054768;28;20055;-68
2021/05/28 10:16:39;;;;;;;7.65;2.42;;;16.40;99.90;;;;;;5053707;28;20418;-68
2021/05/28 10:19:06;;;;;;;5.20;2.20;;;16.40;99.90;;;;;;5054318;28;20412;-68
2021/05/28 10:21:33;;;;;;;19.05;2.80;;;16.40;99.90;;;;;;5055966;28;20047;-68
2021/05/28 10:24:01;;;;;;;7.90;2.85;;;16.40;99.90;;;;;;5053962;28;20420;-68
2021/05/28 10:26:29;;;;;;;6.53;2.13;;;16.40;99.90;;;;;;5054079;28;20052;-68
2021/05/28 10:28:56;;;;;;;5.50;1.63;;;16.30;99.90;;;;;;5049023;28;20049;-68
2021/05/28 10:31:57;;;;;;;3.97;1.77;;;16.30;99.90;;;;;;5052321;28;20052;-68
2021/05/28 10:34:25;;;;;;;5.95;2.30;;;16.30;99.90;;;;;;5051904;28;20471;-68
2021/05/28 10:36:53;;;;;;;5.65;1.70;;;16.70;99.90;;;;;;5049597;28;20484;-68
2021/05/28 10:39:21;;;;;;;6.43;1.80;;;18.30;99.90;;;;;;5054826;28;20094;-68
2021/05/28 10:41:52;;;;;;;4.35;1.77;;;19.60;99.90;;;;;;5053885;28;20108;-68
2021/05/28 10:44:23;;;;;;;4.78;1.58;;;20.50;99.90;;;;;;5052396;28;20070;-68
2021/05/28 10:46:58;;;;;;;6.25;1.83;;;20.60;99.90;;;;;;5051949;28;20118;-68
2021/05/28 10:49:41;;;;;;;3.85;1.58;;;21.20;99.90;;;;;;5051543;28;20059;-68
2021/05/28 10:52:11;;;;;;;4.22;1.50;;;22.40;99.90;;;;;;5053659;28;20435;-69
2021/05/28 10:54:44;;;;;;;5.22;1.38;;;23.00;99.90;;;;;;5046769;28;20043;-69
2021/05/28 10:57:31;;;;;;;3.65;1.40;;;22.80;99.90;;;;;;5044955;28;20289;-69
2021/05/28 11:00:00;;;;;;;4.43;1.77;;;23.60;99.90;;;;;;5052609;28;20519;-69
2021/05/28 11:02:52;;;;;;;3.00;1.63;;;24.00;99.90;;;;;;5050346;28;20090;-69
2021/05/28 11:05:45;;;;;;;1.52;0.90;;;24.10;99.90;;;;;;5053901;28;20079;-69
2021/05/28 11:08:37;;;;;;;3.63;1.00;;;24.30;99.90;;;;;;5052384;28;20390;-69
2021/05/28 11:11:05;;;;;;;2.35;1.20;;;24.30;99.90;;;;;;5050694;28;20505;-69
2021/05/28 11:13:32;;;;;;;2.85;1.20;;;23.90;99.90;;;;;;5050797;28;20056;-69
2021/05/28 11:15:59;;;;;;;4.00;1.23;;;23.10;99.90;;;;;;5049654;28;20048;-69
2021/05/28 11:18:30;;;;;;;2.08;1.33;;;22.80;99.90;;;;;;5052388;28;20052;-69
2021/05/28 11:21:15;;;;;;;3.03;1.15;;;22.20;99.90;;;;;;5052307;28;20479;-69
2021/05/28 11:23:44;;;;;;;2.78;1.35;;;21.60;99.90;;;;;;5052868;28;20457;-69
2021/05/28 11:26:24;;;;;;;4.10;1.10;;;20.90;99.90;;;;;;5052405;28;20060;-69
2021/05/28 11:28:53;;;;;;;5.03;1.20;;;20.10;99.90;;;;;;5050050;28;20048;-69
2021/05/28 11:31:21;;;;;;;3.72;1.60;;;19.60;99.90;;;;;;5045185;28;20056;-68
2021/05/28 11:33:54;;;;;;;6.28;1.40;;;19.50;99.90;;;;;;5041371;28;20062;-68
2021/05/28 11:36:42;;;;;;;6.32;1.63;;;19.00;99.90;;;;;;5046060;28;20538;-68
2021/05/28 11:39:17;;;;;;;4.97;1.80;;;18.90;99.90;;;;;;5051407;28;20060;-68
2021/05/28 11:41:47;;;;;;;10.35;1.90;;;18.70;99.90;;;;;;5050803;28;20075;-69
2021/05/28 11:44:15;;;;;;;3.67;1.45;;;18.30;99.90;;;;;;5054495;28;20052;-69
2021/05/28 11:46:43;;;;;;;4.95;1.27;;;18.00;99.90;;;;;;5054114;28;20072;-69
2021/05/28 11:49:10;;;;;;;4.40;1.80;;;18.20;99.90;;;;;;5054976;28;20053;-68
2021/05/28 11:51:37;;;;;;;2.63;1.13;;;18.00;99.90;;;;;;5057044;28;20051;-68
2021/05/28 11:54:19;;;;;;;4.13;1.55;;;18.00;99.90;;;;;;5057296;28;20059;-68
2021/05/28 11:56:57;;;;;;;3.22;1.35;;;18.30;99.90;;;;;;5055425;28;21397;-69
2021/05/28 11:59:50;;;;;;;12.35;1.73;;;18.30;99.90;;;;;;5048316;28;20049;-68
2021/05/28 12:02:40;;;;;;;3.65;1.30;;;18.10;99.90;;;;;;5045669;28;21422;-67
2021/05/28 12:05:21;;;;;;;4.70;1.70;;;18.50;99.90;;;;;;5047618;28;20055;-68
2021/05/28 12:07:52;;;;;;;4.88;1.38;;;18.60;99.90;;;;;;5046551;28;20048;-68
2021/05/28 12:10:19;;;;;;;4.30;1.42;;;18.40;99.90;;;;;;5052331;28;20172;-67
2021/05/28 12:13:02;;;;;;;2.33;1.25;;;18.70;99.90;;;;;;5047466;28;20056;-68
2021/05/28 12:15:32;;;;;;;3.55;1.60;;;19.00;99.90;;;;;;5046345;28;20047;-68
2021/05/28 12:18:01;;;;;;;5.88;1.80;;;18.90;99.90;;;;;;5057139;28;20143;-68
2021/05/28 12:20:30;;;;;;;2.85;1.30;;;19.00;99.90;;;;;;5063021;28;20084;-68
2021/05/28 12:23:07;;;;;;;2.50;1.25;;;19.50;99.90;;;;;;5048990;28;20668;-68
2021/05/28 12:25:37;;;;;;;1.73;0.90;;;19.80;99.90;;;;;;5042708;28;20054;-68
2021/05/28 12:28:14;;;;;;;2.45;0.80;;;19.90;99.90;;;;;;5041647;28;20048;-68
2021/05/28 12:30:43;;;;;;;2.70;1.10;;;20.30;99.90;;;;;;5047984;28;20095;-68
2021/05/28 12:33:10;;;;;;;2.65;0.98;;;20.50;99.90;;;;;;5047150;28;20052;-68
2021/05/28 12:35:38;;;;;;;3.78;0.90;;;20.40;99.90;;;;;;5045954;28;20385;-68
2021/05/28 12:38:15;;;;;;;1.65;0.90;;;20.60;99.90;;;;;;5034451;28;20052;-68
2021/05/28 12:40:46;;;;;;;;;;;21.00;99.90;;;;;;5048265;28;20055;-68
2021/05/28 12:43:20;;;;;;;2.05;1.00;;;21.60;99.90;;;;;;5049111;28;19924;-68
2021/05/28 12:45:47;;;;;;;2.15;0.73;;;21.60;99.90;;;;;;5048030;28;20086;-68
2021/05/28 12:48:14;;;;;;;6.13;0.93;;;21.80;99.90;;;;;;5046949;28;20929;-67